North Chatham, NY (12132)

3:51 AM EDT on March 29, 2017 (GMT -0400)
Corvus Observatory | | Change Station

Elev 331 ft 42.47 °N, 73.64 °W | Updated 3 seconds ago

Overcast
Overcast
39.0 °F
Feels Like 39 °F
N
1.0
Wind Variable Wind from NW
Gusts 6.0 mph

Today
High -- | Low -- °F
--% Chance of Precip.
Yesterday
High -- | Low -- °F
Precip. -- in
Pressure 29.94 in
Visibility 10.0 miles
Clouds Mostly Cloudy 1300 ft
Overcast 3200 ft
Windchill 39 °F
Dew Point 37 °F
Humidity 91%
Rainfall 0.00 in
Snow Depth Not available.
6:41 AM 7:17 PM
New Moon, 2% visible
SPECI KPSF 290702Z AUTO 30007KT 10SM BKN013 OVC032 03/02 A2994 RMK AO2 T00280017
Pressure 29.94 in
Visibility 10.0 miles
Clouds Mostly Cloudy 1300 ft
Overcast 3200 ft
Windchill 39 °F
Dew Point 37 °F
Humidity 91%
Rainfall 0.00 in
Snow Depth Not available.
6:41 AM 7:17 PM
New Moon, 2% visible
SPECI KPSF 290702Z AUTO 30007KT 10SM BKN013 OVC032 03/02 A2994 RMK AO2 T00280017

Get Severe Weather Alerts

Thanks for signing up!

Be on the lookout for a verification email in your inbox.

You'll start receiving the daily forecast at 8 AM.

×

10-Day Weather Forecast

Almanac

Astronomy

Mar. 29, 2017 Rise Set
Actual Time
Civil Twilight
Nautical Twilight
Astronomical Twilight
Moon
Length of Visible Light
Length of Day
Tomorrow will be .
, % of the Moon is Illuminated

Today's Extremes

State Highs State Lows

Community

WunderPhotos

Upload Photos

1,962,540 photos uploaded!

WunderBlog® & News

Nearby

Air Quality

  Air Quality AQ Index Pollutant
Not available.

Snow Depth

Station Depth Elevation

Earthquake Activity

City Distance Mag. Time & Date
Minimum magnitude displayed is 2.5.

Earthquake Activity

City Distance Mag. Time & Date
Minimum magnitude displayed is 2.5.

Coastal Water Temperatures

Place Temperature

Stations

Nearby Weather Stations

Station Location Temp. Windchill Dew Point Humidity Wind Precip. Elev Updated Type
                   

Watches & Warnings

There are currently no watches in effect.